sensor_id;sensor_type;location;lat;lon;timestamp;pressure;altitude;pressure_sealevel;temperature;humidity
23118;BME280;11728;50.624;6.014;2023-02-19T00:04:54;98662.28;;;9.90;100.00
23118;BME280;11728;50.624;6.014;2023-02-19T00:09:54;98655.22;;;9.92;100.00
23118;BME280;11728;50.624;6.014;2023-02-19T00:14:54;98655.22;;;9.92;100.00
23118;BME280;11728;50.624;6.014;2023-02-19T00:19:56;98648.16;;;9.94;100.00
23118;BME280;11728;50.624;6.014;2023-02-19T00:24:56;98649.94;;;9.93;100.00
23118;BME280;11728;50.624;6.014;2023-02-19T00:29:57;98650.75;;;9.95;100.00
23118;BME280;11728;50.624;6.014;2023-02-19T00:34:57;98647.22;;;9.96;100.00
23118;BME280;11728;50.624;6.014;2023-02-19T00:39:58;98651.63;;;9.99;100.00
23118;BME280;11728;50.624;6.014;2023-02-19T00:44:59;98638.44;;;9.99;100.00
23118;BME280;11728;50.624;6.014;2023-02-19T00:49:59;98641.06;;;9.99;100.00
23118;BME280;11728;50.624;6.014;2023-02-19T00:55:00;98646.34;;;9.99;100.00
23118;BME280;11728;50.624;6.014;2023-02-19T01:00:00;98643.69;;;10.00;100.00
23118;BME280;11728;50.624;6.014;2023-02-19T01:05:01;98644.63;;;9.98;100.00
23118;BME280;11728;50.624;6.014;2023-02-19T01:10:01;98641.97;;;9.99;100.00
23118;BME280;11728;50.624;6.014;2023-02-19T01:15:02;98639.28;;;10.01;100.00
23118;BME280;11728;50.624;6.014;2023-02-19T01:20:02;98634.00;;;10.01;100.00
23118;BME280;11728;50.624;6.014;2023-02-19T01:25:03;98633.09;;;10.03;100.00
23118;BME280;11728;50.624;6.014;2023-02-19T01:30:03;98612.88;;;10.04;100.00
23118;BME280;11728;50.624;6.014;2023-02-19T01:35:04;98638.41;;;10.02;100.00
23118;BME280;11728;50.624;6.014;2023-02-19T01:40:05;98620.81;;;10.02;100.00
23118;BME280;11728;50.624;6.014;2023-02-19T01:45:33;98641.97;;;9.99;100.00
23118;BME280;11728;50.624;6.014;2023-02-19T01:50:37;98646.34;;;9.99;100.00
23118;BME280;11728;50.624;6.014;2023-02-19T01:55:41;98645.44;;;10.00;100.00
23118;BME280;11728;50.624;6.014;2023-02-19T02:00:43;98646.34;;;9.99;100.00
23118;BME280;11728;50.624;6.014;2023-02-19T02:06:20;98631.44;;;9.98;100.00
23118;BME280;11728;50.624;6.014;2023-02-19T02:11:22;98631.44;;;9.95;100.00
23118;BME280;11728;50.624;6.014;2023-02-19T02:16:28;98646.38;;;9.96;100.00
23118;BME280;11728;50.624;6.014;2023-02-19T02:26:57;98644.59;;;9.96;100.00
23118;BME280;11728;50.624;6.014;2023-02-19T02:32:10;98656.94;;;9.96;100.00
23118;BME280;11728;50.624;6.014;2023-02-19T02:37:13;98653.41;;;9.98;100.00
23118;BME280;11728;50.624;6.014;2023-02-19T02:42:14;98642.00;;;9.95;100.00
23118;BME280;11728;50.624;6.014;2023-02-19T02:47:29;98649.03;;;9.93;100.00
23118;BME280;11728;50.624;6.014;2023-02-19T02:52:44;98655.28;;;9.89;100.00
23118;BME280;11728;50.624;6.014;2023-02-19T02:58:06;98658.81;;;9.85;100.00
23118;BME280;11728;50.624;6.014;2023-02-19T03:03:07;98653.56;;;9.85;100.00
23118;BME280;11728;50.624;6.014;2023-02-19T03:08:12;98665.91;;;9.83;100.00
23118;BME280;11728;50.624;6.014;2023-02-19T03:13:27;98672.94;;;9.84;100.00
23118;BME280;11728;50.624;6.014;2023-02-19T03:18:51;98671.13;;;9.86;100.00
23118;BME280;11728;50.624;6.014;2023-02-19T03:24:12;98679.03;;;9.88;100.00
23118;BME280;11728;50.624;6.014;2023-02-19T03:29:36;98676.47;;;9.82;100.00
23118;BME280;11728;50.624;6.014;2023-02-19T03:34:43;98681.75;;;9.83;100.00
23118;BME280;11728;50.624;6.014;2023-02-19T03:39:46;98678.22;;;9.84;100.00
23118;BME280;11728;50.624;6.014;2023-02-19T03:50:10;98686.13;;;9.83;100.00
23118;BME280;11728;50.624;6.014;2023-02-19T03:55:30;98697.56;;;9.82;100.00
23118;BME280;11728;50.624;6.014;2023-02-19T04:05:52;98706.41;;;9.78;100.00
23118;BME280;11728;50.624;6.014;2023-02-19T04:10:57;98717.00;;;9.76;100.00
23118;BME280;11728;50.624;6.014;2023-02-19T04:16:02;98729.31;;;9.74;100.00
23118;BME280;11728;50.624;6.014;2023-02-19T04:21:06;98729.31;;;9.74;100.00
23118;BME280;11728;50.624;6.014;2023-02-19T04:26:08;98748.66;;;9.73;100.00
23118;BME280;11728;50.624;6.014;2023-02-19T04:31:10;98749.56;;;9.72;100.00
23118;BME280;11728;50.624;6.014;2023-02-19T04:36:10;98739.91;;;9.71;100.00
23118;BME280;11728;50.624;6.014;2023-02-19T04:41:11;98757.53;;;9.69;100.00
23118;BME280;11728;50.624;6.014;2023-02-19T04:46:11;98760.13;;;9.71;100.00
23118;BME280;11728;50.624;6.014;2023-02-19T04:51:12;98768.13;;;9.63;100.00
23118;BME280;11728;50.624;6.014;2023-02-19T04:56:14;98768.16;;;9.59;100.00
23118;BME280;11728;50.624;6.014;2023-02-19T05:01:15;98776.97;;;9.56;100.00
23118;BME280;11728;50.624;6.014;2023-02-19T05:06:16;98781.44;;;9.54;100.00
23118;BME280;11728;50.624;6.014;2023-02-19T05:11:16;98790.19;;;9.55;100.00
23118;BME280;11728;50.624;6.014;2023-02-19T05:16:17;98783.16;;;9.54;100.00
23118;BME280;11728;50.624;6.014;2023-02-19T05:21:17;98784.91;;;9.56;100.00
23118;BME280;11728;50.624;6.014;2023-02-19T05:26:21;98792.81;;;9.58;100.00
23118;BME280;11728;50.624;6.014;2023-02-19T05:31:22;98794.59;;;9.54;100.00
23118;BME280;11728;50.624;6.014;2023-02-19T05:36:23;98811.31;;;9.53;100.00
23118;BME280;11728;50.624;6.014;2023-02-19T05:41:28;98814.78;;;9.55;100.00
23118;BME280;11728;50.624;6.014;2023-02-19T05:46:29;98813.03;;;9.56;100.00
23118;BME280;11728;50.624;6.014;2023-02-19T05:51:29;98823.59;;;9.54;100.00
23118;BME280;11728;50.624;6.014;2023-02-19T05:56:35;98822.75;;;9.51;100.00
23118;BME280;11728;50.624;6.014;2023-02-19T06:01:36;98828.91;;;9.48;100.00
23118;BME280;11728;50.624;6.014;2023-02-19T06:06:37;98829.84;;;9.47;100.00
23118;BME280;11728;50.624;6.014;2023-02-19T06:11:38;98835.97;;;9.48;100.00
23118;BME280;11728;50.624;6.014;2023-02-19T06:16:39;98840.31;;;9.50;100.00
23118;BME280;11728;50.624;6.014;2023-02-19T06:21:40;98834.19;;;9.50;100.00
23118;BME280;11728;50.624;6.014;2023-02-19T06:26:40;98842.09;;;9.48;100.00
23118;BME280;11728;50.624;6.014;2023-02-19T06:31:41;98842.09;;;9.50;100.00
23118;BME280;11728;50.624;6.014;2023-02-19T06:36:41;98850.00;;;9.50;100.00
23118;BME280;11728;50.624;6.014;2023-02-19T06:41:42;98853.53;;;9.49;100.00
23118;BME280;11728;50.624;6.014;2023-02-19T06:46:42;98856.16;;;9.50;100.00
23118;BME280;11728;50.624;6.014;2023-02-19T06:51:43;98849.13;;;9.49;100.00
23118;BME280;11728;50.624;6.014;2023-02-19T06:56:43;98855.31;;;9.45;100.00
23118;BME280;11728;50.624;6.014;2023-02-19T07:01:44;98866.75;;;9.44;100.00
23118;BME280;11728;50.624;6.014;2023-02-19T07:06:44;98872.03;;;9.44;100.00
23118;BME280;11728;50.624;6.014;2023-02-19T07:11:45;98872.00;;;9.46;100.00
23118;BME280;11728;50.624;6.014;2023-02-19T07:16:45;98881.66;;;9.47;100.00
23118;BME280;11728;50.624;6.014;2023-02-19T07:21:46;98894.81;;;9.48;100.00
23118;BME280;11728;50.624;6.014;2023-02-19T07:26:46;98902.78;;;9.45;100.00
23118;BME280;11728;50.624;6.014;2023-02-19T07:31:47;98908.91;;;9.47;100.00
23118;BME280;11728;50.624;6.014;2023-02-19T07:36:47;98908.91;;;9.47;100.00
23118;BME280;11728;50.624;6.014;2023-02-19T07:41:47;98915.03;;;9.51;100.00
23118;BME280;11728;50.624;6.014;2023-02-19T07:46:51;98929.09;;;9.50;100.00
23118;BME280;11728;50.624;6.014;2023-02-19T07:51:51;98931.72;;;9.51;100.00
23118;BME280;11728;50.624;6.014;2023-02-19T07:56:51;98940.50;;;9.53;100.00
23118;BME280;11728;50.624;6.014;2023-02-19T08:01:52;98950.16;;;9.54;100.00
23118;BME280;11728;50.624;6.014;2023-02-19T08:07:10;98958.00;;;9.60;100.00
23118;BME280;11728;50.624;6.014;2023-02-19T08:12:11;98958.81;;;9.67;100.00
23118;BME280;11728;50.624;6.014;2023-02-19T08:17:30;98964.91;;;9.73;100.00
23118;BME280;11728;50.624;6.014;2023-02-19T08:22:30;98970.88;;;9.93;100.00
23118;BME280;11728;50.624;6.014;2023-02-19T08:27:30;98976.88;;;10.11;100.00
23118;BME280;11728;50.624;6.014;2023-02-19T08:32:30;98990.06;;;10.14;100.00
23118;BME280;11728;50.624;6.014;2023-02-19T08:37:31;98991.78;;;10.20;100.00
23118;BME280;11728;50.624;6.014;2023-02-19T08:42:31;99001.22;;;10.42;100.00
23118;BME280;11728;50.624;6.014;2023-02-19T08:47:34;98995.78;;;10.57;100.00
23118;BME280;11728;50.624;6.014;2023-02-19T08:52:35;98999.22;;;10.62;100.00
23118;BME280;11728;50.624;6.014;2023-02-19T08:57:35;99008.94;;;10.61;100.00
23118;BME280;11728;50.624;6.014;2023-02-19T09:02:39;99009.84;;;10.56;100.00
23118;BME280;11728;50.624;6.014;2023-02-19T09:07:40;99022.13;;;10.60;100.00
23118;BME280;11728;50.624;6.014;2023-02-19T09:12:40;99026.44;;;10.68;100.00
23118;BME280;11728;50.624;6.014;2023-02-19T09:17:41;99022.03;;;10.69;100.00
23118;BME280;11728;50.624;6.014;2023-02-19T09:22:41;99029.31;;;10.49;100.00
23118;BME280;11728;50.624;6.014;2023-02-19T09:27:41;99040.16;;;10.19;100.00
23118;BME280;11728;50.624;6.014;2023-02-19T09:32:42;99049.13;;;10.01;100.00
23118;BME280;11728;50.624;6.014;2023-02-19T09:37:42;99055.28;;;9.99;100.00
23118;BME280;11728;50.624;6.014;2023-02-19T09:42:42;99050.91;;;9.93;100.00
23118;BME280;11728;50.624;6.014;2023-02-19T09:47:43;99057.03;;;10.03;100.00
23118;BME280;11728;50.624;6.014;2023-02-19T09:52:52;99052.47;;;10.20;100.00
23118;BME280;11728;50.624;6.014;2023-02-19T09:57:54;99064.56;;;10.43;100.00
23118;BME280;11728;50.624;6.014;2023-02-19T10:03:10;99062.75;;;10.47;100.00
23118;BME280;11728;50.624;6.014;2023-02-19T10:08:17;99064.53;;;10.48;100.00
23118;BME280;11728;50.624;6.014;2023-02-19T10:13:21;99066.38;;;10.38;100.00
23118;BME280;11728;50.624;6.014;2023-02-19T10:18:28;99066.50;;;10.25;100.00
23118;BME280;11728;50.624;6.014;2023-02-19T10:23:30;99076.84;;;10.46;100.00
23118;BME280;11728;50.624;6.014;2023-02-19T10:28:34;99077.34;;;10.82;100.00
23118;BME280;11728;50.624;6.014;2023-02-19T10:33:48;99103.78;;;10.79;100.00
23118;BME280;11728;50.624;6.014;2023-02-19T10:38:49;99109.31;;;10.57;100.00
23118;BME280;11728;50.624;6.014;2023-02-19T10:44:29;99120.09;;;10.36;100.00
23118;BME280;11728;50.624;6.014;2023-02-19T10:49:31;99122.03;;;10.13;100.00
23118;BME280;11728;50.624;6.014;2023-02-19T10:54:33;99124.56;;;10.25;100.00
23118;BME280;11728;50.624;6.014;2023-02-19T10:59:35;99124.44;;;10.40;100.00
23118;BME280;11728;50.624;6.014;2023-02-19T11:04:35;99111.09;;;10.55;100.00
23118;BME280;11728;50.624;6.014;2023-02-19T11:09:38;99134.72;;;10.73;100.00
23118;BME280;11728;50.624;6.014;2023-02-19T11:14:43;99134.59;;;10.81;100.00
23118;BME280;11728;50.624;6.014;2023-02-19T11:19:44;99151.41;;;10.76;100.00
23118;BME280;11728;50.624;6.014;2023-02-19T11:24:49;99145.28;;;10.73;100.00
23118;BME280;11728;50.624;6.014;2023-02-19T11:29:51;99154.84;;;10.82;100.00
23118;BME280;11728;50.624;6.014;2023-02-19T11:35:03;99168.78;;;10.96;100.00
23118;BME280;11728;50.624;6.014;2023-02-19T11:40:12;99161.72;;;11.01;100.00
23118;BME280;11728;50.624;6.014;2023-02-19T11:50:25;99165.53;;;10.71;100.00
23118;BME280;11728;50.624;6.014;2023-02-19T12:00:43;99150.03;;;11.17;100.00
23118;BME280;11728;50.624;6.014;2023-02-19T12:06:26;99146.44;;;11.26;100.00
23118;BME280;11728;50.624;6.014;2023-02-19T12:23:15;99141.81;;;10.63;100.00
23118;BME280;11728;50.624;6.014;2023-02-19T12:28:32;99149.94;;;10.45;100.00
23118;BME280;11728;50.624;6.014;2023-02-19T12:39:10;99136.72;;;10.44;100.00
23118;BME280;11728;50.624;6.014;2023-02-19T12:44:22;99138.34;;;10.58;100.00
23118;BME280;11728;50.624;6.014;2023-02-19T12:49:31;99125.88;;;10.72;100.00
23118;BME280;11728;50.624;6.014;2023-02-19T12:54:41;99133.75;;;10.79;100.00
23118;BME280;11728;50.624;6.014;2023-02-19T13:05:03;99138.16;;;10.77;100.00
23118;BME280;11728;50.624;6.014;2023-02-19T13:15:28;99141.53;;;10.91;100.00
23118;BME280;11728;50.624;6.014;2023-02-19T13:25:55;99157.69;;;10.59;100.00
23118;BME280;11728;50.624;6.014;2023-02-19T13:36:26;99156.19;;;10.34;100.00
23118;BME280;11728;50.624;6.014;2023-02-19T13:41:39;99158.84;;;10.31;100.00
23118;BME280;11728;50.624;6.014;2023-02-19T13:46:42;99170.25;;;10.33;100.00
23118;BME280;11728;50.624;6.014;2023-02-19T13:51:51;99163.22;;;10.32;100.00
23118;BME280;11728;50.624;6.014;2023-02-19T14:07:33;99175.47;;;10.43;100.00
23118;BME280;11728;50.624;6.014;2023-02-19T14:12:35;99171.97;;;10.40;100.00
23118;BME280;11728;50.624;6.014;2023-02-19T14:17:42;99186.00;;;10.46;100.00
23118;BME280;11728;50.624;6.014;2023-02-19T14:27:52;99197.53;;;10.36;100.00
23118;BME280;11728;50.624;6.014;2023-02-19T14:32:53;99216.94;;;10.29;100.00
23118;BME280;11728;50.624;6.014;2023-02-19T14:37:55;99209.97;;;10.21;100.00
23118;BME280;11728;50.624;6.014;2023-02-19T14:42:56;99232.84;;;10.16;100.00
23118;BME280;11728;50.624;6.014;2023-02-19T14:47:58;99228.53;;;10.03;100.00
23118;BME280;11728;50.624;6.014;2023-02-19T14:53:02;99227.69;;;9.98;100.00
23118;BME280;11728;50.624;6.014;2023-02-19T14:58:06;99247.88;;;9.93;100.00
23118;BME280;11728;50.624;6.014;2023-02-19T15:03:30;99247.03;;;9.91;100.00
23118;BME280;11728;50.624;6.014;2023-02-19T15:08:37;99247.94;;;9.87;100.00
23118;BME280;11728;50.624;6.014;2023-02-19T15:13:39;99240.94;;;9.83;100.00
23118;BME280;11728;50.624;6.014;2023-02-19T15:18:45;99234.69;;;9.93;100.00
23118;BME280;11728;50.624;6.014;2023-02-19T15:23:46;99230.31;;;9.95;100.00
23118;BME280;11728;50.624;6.014;2023-02-19T15:28:59;99224.16;;;9.93;100.00
23118;BME280;11728;50.624;6.014;2023-02-19T15:33:59;99220.72;;;9.82;100.00
23118;BME280;11728;50.624;6.014;2023-02-19T15:39:01;99221.69;;;9.60;100.00
23118;BME280;11728;50.624;6.014;2023-02-19T15:44:13;99209.47;;;9.40;100.00
23118;BME280;11728;50.624;6.014;2023-02-19T15:49:45;99207.72;;;9.25;100.00
23118;BME280;11728;50.624;6.014;2023-02-19T15:54:50;99205.13;;;9.15;100.00
23118;BME280;11728;50.624;6.014;2023-02-19T15:59:57;99201.63;;;9.18;100.00
23118;BME280;11728;50.624;6.014;2023-02-19T16:05:00;99195.47;;;9.21;100.00
23118;BME280;11728;50.624;6.014;2023-02-19T16:10:15;99201.59;;;9.28;100.00
23118;BME280;11728;50.624;6.014;2023-02-19T16:15:18;99195.47;;;9.24;100.00
23118;BME280;11728;50.624;6.014;2023-02-19T16:20:23;99206.84;;;9.26;100.00
23118;BME280;11728;50.624;6.014;2023-02-19T16:25:36;99201.59;;;9.28;100.00
23118;BME280;11728;50.624;6.014;2023-02-19T16:30:36;99206.88;;;9.25;100.00
23118;BME280;11728;50.624;6.014;2023-02-19T16:35:38;99223.56;;;9.19;100.00
23118;BME280;11728;50.624;6.014;2023-02-19T16:41:03;99232.38;;;9.13;100.00
23118;BME280;11728;50.624;6.014;2023-02-19T16:46:02;99242.06;;;9.03;100.00
23118;BME280;11728;50.624;6.014;2023-02-19T16:51:06;99252.59;;;9.06;100.00
23118;BME280;11728;50.624;6.014;2023-02-19T16:56:12;99269.28;;;8.99;100.00
23118;BME280;11728;50.624;6.014;2023-02-19T17:01:15;99265.75;;;8.90;100.00
23118;BME280;11728;50.624;6.014;2023-02-19T17:06:18;99277.19;;;8.86;100.00
23118;BME280;11728;50.624;6.014;2023-02-19T17:11:19;99282.47;;;8.80;100.00
23118;BME280;11728;50.624;6.014;2023-02-19T17:16:28;99285.09;;;8.77;100.00
23118;BME280;11728;50.624;6.014;2023-02-19T17:21:31;99295.59;;;8.74;100.00
23118;BME280;11728;50.624;6.014;2023-02-19T17:26:32;99298.25;;;8.71;100.00
23118;BME280;11728;50.624;6.014;2023-02-19T17:31:33;99315.78;;;8.69;100.00
23118;BME280;11728;50.624;6.014;2023-02-19T17:36:33;99326.34;;;8.66;100.00
23118;BME280;11728;50.624;6.014;2023-02-19T17:41:34;99324.56;;;8.63;100.00
23118;BME280;11728;50.624;6.014;2023-02-19T17:46:34;99337.72;;;8.62;100.00
23118;BME280;11728;50.624;6.014;2023-02-19T17:51:35;99346.50;;;8.56;100.00
23118;BME280;11728;50.624;6.014;2023-02-19T17:56:35;99342.09;;;8.52;100.00
23118;BME280;11728;50.624;6.014;2023-02-19T18:01:36;99353.50;;;8.48;100.00
23118;BME280;11728;50.624;6.014;2023-02-19T18:06:37;99357.00;;;8.40;100.00
23118;BME280;11728;50.624;6.014;2023-02-19T18:11:37;99356.06;;;8.34;100.00
23118;BME280;11728;50.624;6.014;2023-02-19T18:16:46;99364.88;;;8.34;100.00
23118;BME280;11728;50.624;6.014;2023-02-19T18:21:47;99370.13;;;8.33;100.00
23118;BME280;11728;50.624;6.014;2023-02-19T18:26:47;99368.38;;;8.33;100.00
23118;BME280;11728;50.624;6.014;2023-02-19T18:31:48;99378.91;;;8.35;100.00
23118;BME280;11728;50.624;6.014;2023-02-19T18:36:48;99377.16;;;8.35;100.00
23118;BME280;11728;50.624;6.014;2023-02-19T18:41:50;99372.75;;;8.34;100.00
23118;BME280;11728;50.624;6.014;2023-02-19T18:46:51;99367.50;;;8.28;100.00
23118;BME280;11728;50.624;6.014;2023-02-19T18:51:51;99374.47;;;8.20;100.00
23118;BME280;11728;50.624;6.014;2023-02-19T18:56:51;99377.09;;;8.20;100.00
23118;BME280;11728;50.624;6.014;2023-02-19T19:01:52;99378.88;;;8.21;100.00
23118;BME280;11728;50.624;6.014;2023-02-19T19:06:52;99383.22;;;8.19;100.00
23118;BME280;11728;50.624;6.014;2023-02-19T19:11:52;99380.53;;;8.12;100.00
23118;BME280;11728;50.624;6.014;2023-02-19T19:16:53;99373.56;;;8.15;100.00
23118;BME280;11728;50.624;6.014;2023-02-19T19:21:54;99377.06;;;8.17;100.00
23118;BME280;11728;50.624;6.014;2023-02-19T19:26:54;99395.53;;;8.20;100.00
23118;BME280;11728;50.624;6.014;2023-02-19T19:31:55;99404.28;;;8.21;100.00
23118;BME280;11728;50.624;6.014;2023-02-19T19:36:55;99398.16;;;8.20;100.00
23118;BME280;11728;50.624;6.014;2023-02-19T19:41:56;99388.44;;;8.13;100.00
23118;BME280;11728;50.624;6.014;2023-02-19T19:46:56;99387.53;;;8.11;100.00
23118;BME280;11728;50.624;6.014;2023-02-19T19:51:56;99395.44;;;8.11;100.00
23118;BME280;11728;50.624;6.014;2023-02-19T19:57:00;99394.53;;;8.09;100.00
23118;BME280;11728;50.624;6.014;2023-02-19T20:02:00;99407.69;;;8.06;100.00
23118;BME280;11728;50.624;6.014;2023-02-19T20:07:02;99401.50;;;8.01;100.00
23118;BME280;11728;50.624;6.014;2023-02-19T20:12:03;99395.38;;;7.96;100.00
23118;BME280;11728;50.624;6.014;2023-02-19T20:17:03;99390.13;;;7.99;100.00
23118;BME280;11728;50.624;6.014;2023-02-19T20:22:04;99402.38;;;8.00;100.00
23118;BME280;11728;50.624;6.014;2023-02-19T20:27:04;99405.91;;;7.99;100.00
23118;BME280;11728;50.624;6.014;2023-02-19T20:32:05;99402.38;;;7.99;100.00
23118;BME280;11728;50.624;6.014;2023-02-19T20:37:07;99418.13;;;7.91;100.00
23118;BME280;11728;50.624;6.014;2023-02-19T20:42:08;99421.63;;;7.90;100.00
23118;BME280;11728;50.624;6.014;2023-02-19T20:47:08;99407.56;;;7.82;100.00
23118;BME280;11728;50.624;6.014;2023-02-19T20:52:09;99418.00;;;7.73;100.00
23118;BME280;11728;50.624;6.014;2023-02-19T20:57:10;99424.16;;;7.74;100.00
23118;BME280;11728;50.624;6.014;2023-02-19T21:02:19;99409.25;;;7.74;100.00
23118;BME280;11728;50.624;6.014;2023-02-19T21:07:20;99404.94;;;7.81;100.00
23118;BME280;11728;50.624;6.014;2023-02-19T21:12:20;99392.66;;;7.83;100.00
23118;BME280;11728;50.624;6.014;2023-02-19T21:17:21;99397.00;;;7.76;100.00
23118;BME280;11728;50.624;6.014;2023-02-19T21:22:21;99407.44;;;7.64;100.00
23118;BME280;11728;50.624;6.014;2023-02-19T21:27:22;99418.69;;;7.44;100.00
23118;BME280;11728;50.624;6.014;2023-02-19T21:32:22;99423.78;;;7.25;100.00
23118;BME280;11728;50.624;6.014;2023-02-19T21:37:23;99440.28;;;7.09;100.00
23118;BME280;11728;50.624;6.014;2023-02-19T21:42:23;99444.53;;;6.95;100.00
23118;BME280;11728;50.624;6.014;2023-02-19T21:47:23;99447.91;;;6.85;100.00
23118;BME280;11728;50.624;6.014;2023-02-19T21:52:26;99442.56;;;6.76;100.00
23118;BME280;11728;50.624;6.014;2023-02-19T21:57:27;99435.47;;;6.66;100.00
23118;BME280;11728;50.624;6.014;2023-02-19T22:02:28;99436.22;;;6.56;100.00
23118;BME280;11728;50.624;6.014;2023-02-19T22:07:28;99430.84;;;6.44;100.00
23118;BME280;11728;50.624;6.014;2023-02-19T22:12:29;99432.50;;;6.36;100.00
23118;BME280;11728;50.624;6.014;2023-02-19T22:17:30;99447.28;;;6.30;100.00
23118;BME280;11728;50.624;6.014;2023-02-19T22:22:30;99442.81;;;6.21;100.00
23118;BME280;11728;50.624;6.014;2023-02-19T22:27:30;99439.19;;;6.13;100.00
23118;BME280;11728;50.624;6.014;2023-02-19T22:32:31;99437.38;;;6.08;100.00
23118;BME280;11728;50.624;6.014;2023-02-19T22:37:31;99425.84;;;5.96;100.00
23118;BME280;11728;50.624;6.014;2023-02-19T22:42:32;99424.06;;;5.92;100.00
23118;BME280;11728;50.624;6.014;2023-02-19T22:47:32;99413.53;;;5.90;100.00
23118;BME280;11728;50.624;6.014;2023-02-19T22:52:32;99388.09;;;5.82;100.00
23118;BME280;11728;50.624;6.014;2023-02-19T22:57:33;99411.63;;;5.79;100.00
23118;BME280;11728;50.624;6.014;2023-02-19T23:02:34;99423.00;;;5.81;100.00
23118;BME280;11728;50.624;6.014;2023-02-19T23:07:34;99428.31;;;5.84;100.00
23118;BME280;11728;50.624;6.014;2023-02-19T23:12:38;99423.06;;;5.84;100.00
23118;BME280;11728;50.624;6.014;2023-02-19T23:17:39;99433.56;;;5.84;100.00
23118;BME280;11728;50.624;6.014;2023-02-19T23:22:39;99433.47;;;5.78;100.00
23118;BME280;11728;50.624;6.014;2023-02-19T23:27:39;99415.09;;;5.76;100.00
23118;BME280;11728;50.624;6.014;2023-02-19T23:32:40;99406.31;;;5.76;100.00
23118;BME280;11728;50.624;6.014;2023-02-19T23:37:40;99405.38;;;5.71;100.00
23118;BME280;11728;50.624;6.014;2023-02-19T23:42:40;99393.09;;;5.67;100.00
23118;BME280;11728;50.624;6.014;2023-02-19T23:47:41;99404.41;;;5.64;100.00
23118;BME280;11728;50.624;6.014;2023-02-19T23:52:41;99404.28;;;5.57;100.00
23118;BME280;11728;50.624;6.014;2023-02-19T23:57:42;99406.81;;;5.51;100.00
